Time;durP1;ratioP1;P1;durP2;ratioP2;P2;SDS_P1;SDS_P2;PMS_P1;PMS_P2;Temp;Humidity;BMP_temperature;BMP_pressure;BME280_temperature;BME280_humidity;BME280_pressure;Samples;Min_cycle;Max_cycle;Signal;HPM_P1;HPM_P2
2023/05/10 00:00:13;;;;;;;7.07;6.30;;;;;;;10.18;58.30;100704.88;5067322;28;20664;-67
2023/05/10 00:02:40;;;;;;;9.17;6.60;;;;;;;10.14;57.99;100703.22;5072305;28;20315;-67
2023/05/10 00:05:07;;;;;;;7.17;5.57;;;;;;;10.10;58.18;100704.94;5069345;28;20201;-67
2023/05/10 00:07:34;;;;;;;7.27;6.10;;;;;;;10.05;58.21;100695.31;5053814;28;20531;-68
2023/05/10 00:10:00;;;;;;;10.23;6.07;;;;;;;10.01;58.84;100694.41;5064443;28;20246;-68
2023/05/10 00:12:27;;;;;;;9.10;6.27;;;;;;;9.98;58.90;100691.59;5069119;28;20211;-68
2023/05/10 00:14:54;;;;;;;8.13;6.20;;;;;;;9.94;58.92;100694.09;5065088;28;20222;-67
2023/05/10 00:17:21;;;;;;;7.47;6.37;;;;;;;9.93;59.26;100691.81;5063708;28;20210;-67
2023/05/10 00:19:48;;;;;;;8.53;6.03;;;;;;;9.90;58.85;100690.56;5066484;28;20629;-67
2023/05/10 00:22:14;;;;;;;8.97;6.10;;;;;;;9.87;58.75;100685.94;5068356;28;20284;-69
2023/05/10 00:24:41;;;;;;;12.73;6.40;;;;;;;9.86;59.21;100680.97;5067092;28;20211;-68
2023/05/10 00:27:08;;;;;;;10.30;6.37;;;;;;;9.84;59.70;100681.28;5066748;28;20208;-68
2023/05/10 00:29:34;;;;;;;10.50;6.97;;;;;;;9.82;59.44;100680.81;5052412;28;20673;-68
2023/05/10 00:32:02;;;;;;;9.27;6.20;;;;;;;9.78;58.84;100677.28;5051159;28;20223;-68
2023/05/10 00:34:29;;;;;;;7.60;5.93;;;;;;;9.76;59.32;100674.19;5051964;28;20238;-67
2023/05/10 00:36:56;;;;;;;8.27;6.33;;;;;;;9.73;59.43;100672.19;5052305;28;20207;-67
2023/05/10 00:39:22;;;;;;;12.23;6.80;;;;;;;9.69;59.92;100671.25;5040462;28;20227;-67
2023/05/10 00:41:49;;;;;;;7.43;6.30;;;;;;;9.65;59.47;100666.94;5065215;28;20232;-67
2023/05/10 00:44:18;;;;;;;10.90;6.77;;;;;;;9.60;59.59;100669.75;5049431;28;20191;-68
2023/05/10 00:46:45;;;;;;;7.27;6.40;;;;;;;9.57;60.16;100665.13;5066642;28;20200;-68
2023/05/10 00:49:13;;;;;;;8.53;6.07;;;;;;;9.54;60.89;100666.53;5048406;28;20203;-68
2023/05/10 00:51:42;;;;;;;7.60;6.80;;;;;;;9.51;60.89;100664.50;5050845;28;20222;-68
2023/05/10 00:54:09;;;;;;;7.60;6.60;;;;;;;9.48;60.87;100662.50;5048409;28;20195;-67
2023/05/10 00:56:35;;;;;;;8.47;6.60;;;;;;;9.44;60.34;100664.25;5065627;28;20197;-69
2023/05/10 00:59:01;;;;;;;7.90;6.57;;;;;;;9.41;60.81;100661.44;5066526;28;20195;-68
2023/05/10 01:01:29;;;;;;;9.37;6.90;;;;;;;9.37;60.24;100650.75;5069061;28;20223;-68
2023/05/10 01:03:56;;;;;;;7.87;6.87;;;;;;;9.35;61.07;100660.06;5047780;28;20209;-67
2023/05/10 01:06:24;;;;;;;9.60;6.37;;;;;;;9.31;60.75;100653.91;5062672;28;20303;-68
2023/05/10 01:08:52;;;;;;;9.07;7.17;;;;;;;9.29;61.54;100661.31;5046260;28;20196;-68
2023/05/10 01:11:18;;;;;;;10.50;6.93;;;;;;;9.25;60.65;100650.66;5069349;28;20704;-67
2023/05/10 01:13:52;;;;;;;7.37;6.33;;;;;;;9.22;60.91;100650.50;5048699;28;20210;-67
2023/05/10 01:16:18;;;;;;;9.40;7.07;;;;;;;9.20;62.62;100645.53;5053822;28;20207;-67
2023/05/10 01:18:45;;;;;;;10.83;7.10;;;;;;;9.18;61.71;100644.31;5060715;28;20557;-67
2023/05/10 01:21:24;;;;;;;8.97;7.53;;;;;;;9.15;62.05;100642.28;5051276;28;20312;-67
2023/05/10 01:24:29;;;;;;;13.40;7.27;;;;;;;9.11;62.64;100650.06;5048619;28;20202;-67
2023/05/10 01:27:17;;;;;;;7.57;6.73;;;;;;;9.07;61.58;100646.50;5036686;28;20211;-68
2023/05/10 01:30:23;;;;;;;10.90;7.60;;;;;;;9.05;62.34;100647.88;5051442;28;20221;-67
2023/05/10 01:32:58;;;;;;;9.13;7.27;;;;;;;9.02;62.40;100651.94;5008747;28;20190;-67
2023/05/10 01:35:32;;;;;;;9.23;7.43;;;;;;;8.99;62.93;100652.56;5072636;28;20643;-68
2023/05/10 01:38:08;;;;;;;11.93;7.50;;;;;;;8.96;63.03;100644.53;5052584;28;20199;-67
2023/05/10 01:40:40;;;;;;;10.20;7.97;;;;;;;8.92;63.12;100647.00;5049039;28;20198;-67
2023/05/10 01:43:11;;;;;;;9.60;7.70;;;;;;;8.91;64.04;100647.31;5068270;28;20550;-68
2023/05/10 01:45:43;;;;;;;10.13;8.13;;;;;;;8.88;63.77;100640.03;5069361;28;20195;-67
2023/05/10 01:48:11;;;;;;;8.67;7.77;;;;;;;8.84;63.98;100642.50;5068108;28;20664;-67
2023/05/10 01:50:42;;;;;;;10.63;7.50;;;;;;;8.80;63.31;100632.94;5047890;28;20639;-68
2023/05/10 01:53:11;;;;;;;10.23;8.00;;;;;;;8.78;64.33;100645.59;5061303;28;20223;-67
2023/05/10 01:55:46;;;;;;;9.10;7.63;;;;;;;8.74;63.89;100639.41;5064050;28;20206;-67
2023/05/10 01:58:16;;;;;;;12.80;7.47;;;;;;;8.69;64.01;100637.72;5051657;28;20202;-67
2023/05/10 02:00:45;;;;;;;11.83;7.70;;;;;;;8.68;65.00;100643.28;5049987;28;20215;-67
2023/05/10 02:03:15;;;;;;;10.53;7.17;;;;;;;8.63;64.70;100641.59;5049881;28;20244;-67
2023/05/10 02:05:44;;;;;;;11.27;7.60;;;;;;;8.60;64.39;100639.56;5050438;28;20202;-67
2023/05/10 02:08:11;;;;;;;12.03;8.37;;;;;;;8.56;65.04;100638.66;5069757;28;20584;-67
2023/05/10 02:10:39;;;;;;;10.20;7.80;;;;;;;8.53;64.97;100643.75;5047468;28;20229;-67
2023/05/10 02:13:07;;;;;;;8.83;7.73;;;;;;;8.50;65.25;100641.75;5067176;28;20573;-67
2023/05/10 02:15:35;;;;;;;10.00;7.70;;;;;;;8.47;64.50;100640.53;5048230;28;20211;-67
2023/05/10 02:18:03;;;;;;;9.57;7.27;;;;;;;8.44;64.64;100632.47;5049743;28;20203;-67
2023/05/10 02:20:33;;;;;;;11.53;6.80;;;;;;;8.41;64.98;100633.09;5050160;28;20198;-67
2023/05/10 02:23:01;;;;;;;9.80;7.50;;;;;;;8.39;64.97;100625.50;5064645;28;20286;-67
2023/05/10 02:25:30;;;;;;;9.37;7.07;;;;;;;8.37;64.79;100632.16;5050793;28;20278;-67
2023/05/10 02:27:58;;;;;;;10.23;7.50;;;;;;;8.34;65.66;100632.78;5068548;28;20236;-67
2023/05/10 02:30:26;;;;;;;8.67;7.13;;;;;;;8.31;64.76;100628.91;5051891;28;20202;-68
2023/05/10 02:32:52;;;;;;;9.97;7.00;;;;;;;8.28;64.36;100624.25;5070329;28;20214;-68
2023/05/10 02:35:19;;;;;;;11.93;6.43;;;;;;;8.28;65.14;100621.63;5051851;28;20207;-68
2023/05/10 02:37:48;;;;;;;11.07;7.53;;;;;;;8.25;65.11;100621.47;5065239;28;20205;-68
2023/05/10 02:40:17;;;;;;;10.63;7.70;;;;;;;8.23;64.83;100621.00;5052314;28;20194;-68
2023/05/10 02:42:45;;;;;;;9.30;7.10;;;;;;;8.19;64.77;100623.44;5059769;28;20552;-68
2023/05/10 02:45:14;;;;;;;8.90;7.37;;;;;;;8.18;65.30;100616.63;5044399;28;20205;-67
2023/05/10 02:47:43;;;;;;;7.87;6.50;;;;;;;8.15;65.71;100617.25;5049038;28;20198;-67
2023/05/10 02:50:10;;;;;;;9.17;7.20;;;;;;;8.14;66.17;100609.66;5051164;28;20640;-67
2023/05/10 02:52:41;;;;;;;8.47;6.40;;;;;;;8.12;65.48;100611.84;5041525;28;20652;-68
2023/05/10 02:55:12;;;;;;;9.80;7.13;;;;;;;8.09;65.17;100613.25;5066193;28;20581;-68
2023/05/10 02:57:43;;;;;;;10.60;6.77;;;;;;;8.07;66.06;100614.63;5068670;28;20198;-68
2023/05/10 03:00:11;;;;;;;8.53;7.47;;;;;;;8.05;66.01;100609.66;5064716;28;20656;-68
2023/05/10 03:02:37;;;;;;;7.97;6.47;;;;;;;8.04;66.53;100608.13;5068477;28;20225;-68
2023/05/10 03:05:04;;;;;;;9.90;7.33;;;;;;;8.02;65.74;100610.28;5049579;28;20195;-68
2023/05/10 03:07:31;;;;;;;9.67;6.97;;;;;;;8.02;66.09;100604.25;5071337;28;20193;-68
2023/05/10 03:09:58;;;;;;;10.00;7.47;;;;;;;8.00;66.13;100607.19;5047210;28;20702;-68
2023/05/10 03:12:40;;;;;;;10.00;6.63;;;;;;;7.99;65.82;100608.28;5045379;28;20305;-68
2023/05/10 03:15:14;;;;;;;11.30;7.33;;;;;;;7.98;66.54;100606.69;5041074;28;20585;-68
2023/05/10 03:17:48;;;;;;;10.33;6.40;;;;;;;7.98;65.71;100604.06;5046912;28;20222;-68
2023/05/10 03:20:24;;;;;;;8.90;6.40;;;;;;;7.97;64.87;100601.78;5046869;28;20225;-68
2023/05/10 03:22:54;;;;;;;9.17;5.97;;;;;;;7.97;66.48;100607.03;5064019;28;20688;-68
2023/05/10 03:25:22;;;;;;;10.57;6.53;;;;;;;7.96;66.46;100603.63;5044195;28;20290;-68
2023/05/10 03:27:51;;;;;;;7.53;6.10;;;;;;;7.96;65.95;100602.81;5053029;28;20205;-68
2023/05/10 03:30:18;;;;;;;7.67;5.87;;;;;;;7.95;65.79;100599.44;5050048;28;20236;-68
2023/05/10 03:32:44;;;;;;;8.73;5.97;;;;;;;7.96;66.06;100602.81;5065840;28;20199;-68
2023/05/10 03:35:13;;;;;;;8.00;6.47;;;;;;;7.97;66.32;100599.13;5043722;28;20310;-67
2023/05/10 03:37:39;;;;;;;11.17;6.93;;;;;;;7.96;65.97;100603.63;5049992;28;20282;-68
2023/05/10 03:40:07;;;;;;;8.70;6.40;;;;;;;7.96;66.05;100598.34;5049364;28;20191;-68
2023/05/10 03:42:36;;;;;;;8.00;6.07;;;;;;;7.95;65.74;100599.44;5048528;28;20214;-67
2023/05/10 03:45:04;;;;;;;8.93;5.67;;;;;;;7.96;64.64;100593.09;5061902;28;20252;-67
2023/05/10 03:47:31;;;;;;;6.97;5.80;;;;;;;8.01;65.79;100597.41;5049094;28;20279;-68
2023/05/10 03:49:58;;;;;;;7.03;5.83;;;;;;;8.02;66.39;100602.38;5046632;28;20204;-68
2023/05/10 03:52:25;;;;;;;7.40;5.27;;;;;;;8.02;65.75;100601.63;5046315;28;20653;-67
2023/05/10 03:54:51;;;;;;;7.20;5.20;;;;;;;8.05;65.77;100595.72;5048929;28;20198;-68
2023/05/10 03:57:18;;;;;;;10.60;6.13;;;;;;;8.06;65.63;100595.44;5051199;28;20199;-68
2023/05/10 03:59:45;;;;;;;7.17;5.80;;;;;;;8.06;66.03;100598.06;5049445;28;20292;-68
2023/05/10 04:02:12;;;;;;;8.87;5.60;;;;;;;8.09;66.34;100594.81;5037756;28;20262;-68
2023/05/10 04:04:39;;;;;;;7.67;5.73;;;;;;;8.11;65.31;100599.75;5062388;28;20178;-68
2023/05/10 04:07:05;;;;;;;7.03;5.90;;;;;;;8.14;65.78;100594.66;5048468;28;20743;-68
2023/05/10 04:09:32;;;;;;;7.50;5.40;;;;;;;8.19;65.24;100597.13;5061335;28;20195;-68
2023/05/10 04:11:59;;;;;;;7.97;5.57;;;;;;;8.23;65.66;100597.34;5069419;28;20211;-68
2023/05/10 04:14:26;;;;;;;10.43;5.50;;;;;;;8.29;65.65;100596.09;5064757;28;20191;-68
2023/05/10 04:16:52;;;;;;;10.97;5.33;;;;;;;8.33;64.74;100600.44;5066101;28;20223;-68
2023/05/10 04:19:20;;;;;;;7.07;5.77;;;;;;;8.41;65.05;100585.72;5048917;28;20602;-68
2023/05/10 04:21:46;;;;;;;6.40;5.33;;;;;;;8.48;65.60;100604.44;5066296;28;20222;-67
2023/05/10 04:24:13;;;;;;;8.90;5.50;;;;;;;8.55;64.91;100597.63;5050381;28;20196;-68
2023/05/10 04:26:39;;;;;;;7.57;5.90;;;;;;;8.64;65.12;100602.91;5066787;28;20574;-68
2023/05/10 04:29:06;;;;;;;7.63;5.70;;;;;;;8.70;65.01;100594.50;5072780;28;20214;-68
2023/05/10 04:31:33;;;;;;;11.13;6.17;;;;;;;8.78;64.42;100593.75;5063515;28;20657;-68
2023/05/10 04:33:59;;;;;;;11.63;5.27;;;;;;;8.85;64.48;100583.50;5060436;28;20209;-68
2023/05/10 04:36:27;;;;;;;7.87;5.50;;;;;;;8.95;64.14;100588.44;5062527;28;20211;-69
2023/05/10 04:38:53;;;;;;;6.10;5.23;;;;;;;9.04;63.96;100591.03;5051698;28;20744;-68
2023/05/10 04:41:20;;;;;;;8.73;5.63;;;;;;;9.13;63.61;100583.88;5066834;28;20574;-67
2023/05/10 04:43:48;;;;;;;10.80;5.60;;;;;;;9.23;63.64;100602.78;5064815;28;20210;-67
2023/05/10 04:46:15;;;;;;;6.90;4.93;;;;;;;9.31;63.13;100598.56;5068734;28;20240;-68
2023/05/10 04:48:41;;;;;;;10.30;5.40;;;;;;;9.37;63.15;100589.38;5051307;28;20612;-69
2023/05/10 04:51:08;;;;;;;9.67;5.27;;;;;;;9.46;63.04;100601.44;5049163;28;20223;-68
2023/05/10 04:53:35;;;;;;;9.77;5.07;;;;;;;9.55;63.10;100596.13;5046700;28;20670;-69
2023/05/10 04:56:02;;;;;;;6.03;4.93;;;;;;;9.61;62.52;100600.09;5050352;28;20765;-67
2023/05/10 04:58:29;;;;;;;5.73;4.97;;;;;;;9.69;62.36;100599.31;5065954;28;20200;-67
2023/05/10 05:00:55;;;;;;;11.03;4.90;;;;;;;9.76;62.07;100595.06;5047592;28;20229;-69
2023/05/10 05:03:22;;;;;;;9.33;5.20;;;;;;;9.85;62.27;100600.31;5065783;28;20543;-67
2023/05/10 05:05:48;;;;;;;7.77;4.70;;;;;;;9.91;62.69;100599.03;5067586;28;20201;-68
2023/05/10 05:08:15;;;;;;;5.83;4.70;;;;;;;9.97;61.82;100603.00;5064257;28;20193;-68
2023/05/10 05:10:43;;;;;;;5.57;4.80;;;;;;;10.04;61.69;100598.03;5047042;28;20232;-68
2023/05/10 05:13:09;;;;;;;8.90;4.67;;;;;;;10.10;61.91;100600.16;5066637;28;20205;-68
2023/05/10 05:15:35;;;;;;;6.50;4.57;;;;;;;10.16;61.67;100601.53;5064504;28;20594;-69
2023/05/10 05:18:02;;;;;;;6.57;4.57;;;;;;;10.21;61.68;100601.34;5059047;28;20714;-67
2023/05/10 05:20:28;;;;;;;7.73;4.90;;;;;;;10.28;61.57;100604.22;5049112;28;20220;-68
2023/05/10 05:22:54;;;;;;;6.93;5.10;;;;;;;10.36;61.16;100594.69;5063037;28;20202;-68
2023/05/10 05:25:21;;;;;;;8.43;5.10;;;;;;;10.44;60.83;100599.13;5065304;28;20195;-68
2023/05/10 05:27:49;;;;;;;12.67;4.43;;;;;;;10.50;60.58;100592.56;5050274;28;20255;-68
2023/05/10 05:30:15;;;;;;;4.50;4.10;;;;;;;10.59;61.06;100593.25;5048484;28;20190;-67
2023/05/10 05:32:42;;;;;;;8.20;4.60;;;;;;;10.66;60.46;100588.22;5063221;28;20199;-68
2023/05/10 05:35:08;;;;;;;6.40;4.10;;;;;;;10.72;60.71;100595.59;5065774;28;20658;-68
2023/05/10 05:37:35;;;;;;;9.63;4.30;;;;;;;10.83;59.73;100588.06;5064958;28;20207;-69
2023/05/10 05:40:01;;;;;;;6.97;4.53;;;;;;;10.91;60.42;100589.81;5061807;28;20210;-67
2023/05/10 05:42:28;;;;;;;8.33;4.60;;;;;;;10.98;60.52;100596.13;5060411;28;20572;-68
2023/05/10 05:44:56;;;;;;;7.60;4.43;;;;;;;11.06;60.39;100589.97;5048481;28;20256;-68
2023/05/10 05:47:22;;;;;;;7.67;4.40;;;;;;;11.17;59.43;100577.88;5066230;28;20660;-68
2023/05/10 05:49:48;;;;;;;4.80;4.13;;;;;;;11.25;59.73;100577.00;5063393;28;20284;-68
2023/05/10 05:52:15;;;;;;;5.97;4.40;;;;;;;11.37;59.09;100578.88;5060161;28;20225;-68
2023/05/10 05:54:41;;;;;;;5.87;4.20;;;;;;;11.42;59.00;100579.44;5044707;28;20217;-68
2023/05/10 05:57:08;;;;;;;5.30;4.07;;;;;;;11.52;58.32;100581.66;5064086;28;20228;-69
2023/05/10 05:59:35;;;;;;;5.80;4.13;;;;;;;11.62;58.80;100572.50;5062519;28;20270;-67
2023/05/10 06:02:02;;;;;;;5.50;3.97;;;;;;;11.69;58.90;100570.09;5046855;28;20225;-67
2023/05/10 06:04:29;;;;;;;7.03;3.70;;;;;;;11.81;58.48;100575.38;5065932;28;20695;-68
2023/05/10 06:06:55;;;;;;;6.63;3.70;;;;;;;11.89;58.81;100577.09;5062946;28;20248;-68
2023/05/10 06:09:23;;;;;;;5.23;3.30;;;;;;;12.01;58.22;100575.22;5058781;28;20572;-68
2023/05/10 06:11:49;;;;;;;4.40;3.70;;;;;;;12.17;57.65;100577.94;5047105;28;20695;-68
2023/05/10 06:14:16;;;;;;;8.50;3.53;;;;;;;12.26;58.00;100576.69;5067468;28;20543;-68
2023/05/10 06:16:42;;;;;;;4.83;3.80;;;;;;;12.35;57.68;100577.31;5059525;28;20227;-69
2023/05/10 06:19:10;;;;;;;5.27;3.40;;;;;;;12.44;57.70;100577.97;5065372;28;20218;-68
2023/05/10 06:21:36;;;;;;;4.03;3.13;;;;;;;12.56;57.39;100571.81;5045579;28;20301;-68
2023/05/10 06:24:03;;;;;;;4.97;3.47;;;;;;;12.66;57.48;100576.63;5064360;28;20197;-68
2023/05/10 06:26:29;;;;;;;19.03;3.30;;;;;;;12.76;56.46;100570.84;5064696;28;20240;-68
2023/05/10 06:28:56;;;;;;;5.33;3.10;;;;;;;12.86;57.78;100573.00;5061519;28;20283;-68
2023/05/10 06:31:22;;;;;;;5.77;3.10;;;;;;;12.97;56.93;100566.09;5062183;28;20574;-69
2023/05/10 06:33:49;;;;;;;3.90;2.83;;;;;;;13.08;56.89;100567.13;5052760;28;20202;-66
2023/05/10 06:36:16;;;;;;;6.53;3.10;;;;;;;13.25;54.65;100572.13;5030972;28;20607;-68
2023/05/10 06:38:43;;;;;;;5.60;3.30;;;;;;;13.37;54.79;100569.38;5059422;28;21427;-68
2023/05/10 06:41:09;;;;;;;5.43;2.90;;;;;;;13.44;55.91;100565.00;5056590;28;20224;-68
2023/05/10 06:43:39;;;;;;;3.43;2.70;;;;;;;13.59;54.54;100572.16;5061039;28;20201;-68
2023/05/10 06:46:06;;;;;;;7.40;2.97;;;;;;;13.68;55.10;100566.66;5058907;28;20710;-69
2023/05/10 06:48:32;;;;;;;7.20;2.90;;;;;;;13.75;54.91;100567.59;5058538;28;20193;-68
2023/05/10 06:50:59;;;;;;;5.90;3.03;;;;;;;13.89;54.24;100557.28;5058853;28;20657;-69
2023/05/10 06:53:27;;;;;;;4.37;2.83;;;;;;;14.00;54.75;100568.13;5060049;28;20212;-68
2023/05/10 06:55:53;;;;;;;5.40;2.70;;;;;;;14.10;53.89;100571.00;5055217;28;20224;-68
2023/05/10 06:58:20;;;;;;;5.27;2.73;;;;;;;14.22;54.17;100576.22;5055796;28;20205;-69
2023/05/10 07:00:47;;;;;;;2.93;2.60;;;;;;;14.37;53.26;100564.75;5039944;28;20229;-69
2023/05/10 07:03:13;;;;;;;4.30;2.60;;;;;;;14.46;53.30;100569.84;5038963;28;20275;-67
2023/05/10 07:05:39;;;;;;;4.17;2.93;;;;;;;14.55;53.89;100565.84;5053967;28;20214;-68
2023/05/10 07:08:06;;;;;;;4.73;2.87;;;;;;;14.70;53.57;100572.94;5058184;28;20693;-68
2023/05/10 07:10:34;;;;;;;4.43;2.60;;;;;;;14.79;53.24;100572.72;5060237;28;20555;-68
2023/05/10 07:13:01;;;;;;;6.80;2.90;;;;;;;14.93;51.97;100573.75;5055402;28;20206;-68
2023/05/10 07:15:27;;;;;;;6.33;2.90;;;;;;;15.01;52.69;100570.06;5057988;28;20211;-69
2023/05/10 07:17:54;;;;;;;4.40;3.10;;;;;;;15.10;53.24;100565.28;5057252;28;20253;-68
2023/05/10 07:20:20;;;;;;;4.27;2.70;;;;;;;15.22;51.34;100567.00;5042130;28;20644;-68
2023/05/10 07:22:47;;;;;;;6.90;2.93;;;;;;;15.35;52.21;100576.34;5058217;28;20680;-68
2023/05/10 07:25:13;;;;;;;3.73;2.60;;;;;;;15.43;51.02;100573.44;5043559;28;20209;-68
2023/05/10 07:27:41;;;;;;;3.90;2.80;;;;;;;15.51;50.31;100574.31;5063247;28;20187;-69
2023/05/10 07:30:08;;;;;;;4.20;2.80;;;;;;;15.60;50.94;100572.19;5060100;28;20274;-69
2023/05/10 07:32:35;;;;;;;4.77;2.40;;;;;;;15.69;50.79;100564.72;5063184;28;20224;-69
2023/05/10 07:35:01;;;;;;;5.07;2.83;;;;;;;15.79;49.72;100566.75;5062489;28;20203;-68
2023/05/10 07:37:27;;;;;;;9.13;2.60;;;;;;;15.90;50.41;100573.00;5064319;28;20213;-69
2023/05/10 07:39:54;;;;;;;3.23;2.30;;;;;;;15.99;50.68;100565.50;5061220;28;20571;-68
2023/05/10 07:42:20;;;;;;;8.63;2.40;;;;;;;16.06;49.67;100565.59;5061781;28;20588;-68
2023/05/10 07:44:48;;;;;;;3.13;2.63;;;;;;;16.15;50.77;100564.16;5063168;28;20313;-68
2023/05/10 07:47:14;;;;;;;5.37;2.53;;;;;;;16.24;50.42;100570.00;5061886;28;20208;-67
2023/05/10 07:49:40;;;;;;;4.27;2.50;;;;;;;16.36;49.18;100561.00;5040999;28;20639;-68
2023/05/10 07:52:07;;;;;;;4.83;2.90;;;;;;;16.44;48.81;100563.41;5062032;28;20236;-68
2023/05/10 07:54:33;;;;;;;3.83;2.50;;;;;;;16.53;48.91;100563.13;5060880;28;20221;-68
2023/05/10 07:57:00;;;;;;;7.13;2.53;;;;;;;16.62;48.35;100563.59;5058061;28;20225;-68
2023/05/10 07:59:27;;;;;;;4.97;2.40;;;;;;;16.69;48.02;100550.31;5056547;28;20214;-68
2023/05/10 08:01:54;;;;;;;8.37;2.30;;;;;;;16.79;48.86;100561.09;5057253;28;20218;-68
2023/05/10 08:04:21;;;;;;;4.97;2.20;;;;;;;16.89;48.41;100563.09;5061458;28;20199;-67
2023/05/10 08:06:47;;;;;;;9.43;2.20;;;;;;;16.98;47.85;100560.88;5062751;28;20227;-68
2023/05/10 08:09:14;;;;;;;6.53;2.27;;;;;;;17.07;47.98;100558.69;5042783;28;20249;-68
2023/05/10 08:11:40;;;;;;;5.73;2.20;;;;;;;17.17;47.46;100557.22;5067234;28;20253;-68
2023/05/10 08:14:06;;;;;;;5.83;2.40;;;;;;;17.27;48.81;100564.53;5065085;28;20194;-68
2023/05/10 08:16:34;;;;;;;7.70;2.17;;;;;;;17.36;48.24;100562.34;5047564;28;20211;-68
2023/05/10 08:19:01;;;;;;;4.93;1.87;;;;;;;17.44;46.36;100555.94;5067022;28;20669;-68
2023/05/10 08:21:28;;;;;;;2.03;1.80;;;;;;;17.53;47.38;100564.38;5048416;28;20221;-68
2023/05/10 08:23:54;;;;;;;4.97;2.20;;;;;;;17.63;47.15;100559.13;5060234;28;20206;-68
2023/05/10 08:26:21;;;;;;;3.87;2.80;;;;;;;17.73;47.24;100562.97;5061660;28;20213;-68
2023/05/10 08:28:47;;;;;;;3.30;2.20;;;;;;;17.83;46.09;100567.63;5064905;28;20654;-68
2023/05/10 08:31:13;;;;;;;4.90;2.13;;;;;;;17.90;46.27;100568.41;5061589;28;20833;-68
2023/05/10 08:33:40;;;;;;;4.10;2.07;;;;;;;17.98;46.06;100567.34;5063464;28;20198;-68
2023/05/10 08:36:08;;;;;;;10.13;2.73;;;;;;;18.09;45.98;100557.44;5064629;28;20211;-68
2023/05/10 08:38:34;;;;;;;8.53;2.43;;;;;;;18.17;45.63;100553.66;5063027;28;20226;-67
2023/05/10 08:41:03;;;;;;;8.13;2.30;;;;;;;18.25;44.57;100563.25;5060262;28;20236;-68
2023/05/10 08:43:30;;;;;;;11.20;2.53;;;;;;;18.30;46.37;100554.06;5057331;28;20478;-68
2023/05/10 08:45:57;;;;;;;5.97;1.90;;;;;;;18.39;44.22;100566.00;5040410;28;20631;-68
2023/05/10 08:48:25;;;;;;;10.00;2.30;;;;;;;18.41;45.59;100561.03;5052585;28;20244;-68
2023/05/10 08:50:54;;;;;;;6.13;1.90;;;;;;;18.50;44.54;100564.13;5059699;28;20214;-68
2023/05/10 08:53:25;;;;;;;6.20;2.10;;;;;;;18.58;44.86;100575.59;5053963;28;20631;-68
2023/05/10 08:55:52;;;;;;;2.87;2.00;;;;;;;18.62;43.37;100566.44;5058118;28;20669;-68
2023/05/10 08:58:20;;;;;;;8.13;2.00;;;;;;;18.69;43.84;100571.03;5062737;28;20218;-68
2023/05/10 09:00:47;;;;;;;3.90;2.00;;;;;;;18.77;44.10;100572.56;5057214;28;20227;-68
2023/05/10 09:03:14;;;;;;;3.83;2.30;;;;;;;18.82;44.01;100574.88;5057809;28;20206;-68
2023/05/10 09:05:41;;;;;;;7.87;2.60;;;;;;;18.89;41.46;100564.19;5061341;28;20874;-68
2023/05/10 09:08:09;;;;;;;6.93;2.20;;;;;;;18.92;42.32;100566.09;5063456;28;20621;-68
2023/05/10 09:10:38;;;;;;;6.13;2.40;;;;;;;19.00;43.70;100565.69;5058818;28;20238;-68
2023/05/10 09:13:04;;;;;;;5.90;2.00;;;;;;;19.04;43.01;100566.47;5041895;28;20199;-68
2023/05/10 09:15:31;;;;;;;7.13;2.17;;;;;;;19.08;43.46;100577.97;5045326;28;20203;-68
2023/05/10 09:17:59;;;;;;;6.33;2.00;;;;;;;19.13;44.44;100568.78;5055985;28;20230;-68
2023/05/10 09:20:25;;;;;;;6.17;2.20;;;;;;;19.20;43.26;100568.78;5043761;28;20198;-68
2023/05/10 09:22:51;;;;;;;8.23;2.00;;;;;;;19.27;43.75;100574.16;5055652;28;20599;-68
2023/05/10 09:25:18;;;;;;;3.77;1.97;;;;;;;19.32;42.27;100573.78;5058233;28;20310;-68
2023/05/10 09:27:48;;;;;;;14.87;2.80;;;;;;;19.41;43.16;100574.16;5058286;28;20661;-68
2023/05/10 09:30:17;;;;;;;11.43;2.20;;;;;;;19.47;43.03;100575.28;5058590;28;20203;-68
2023/05/10 09:32:44;;;;;;;7.17;2.13;;;;;;;19.52;43.12;100578.38;5054365;28;20218;-68
2023/05/10 09:35:13;;;;;;;4.60;2.63;;;;;;;19.59;43.17;100572.97;5056938;28;20209;-68
2023/05/10 09:37:42;;;;;;;2.77;2.20;;;;;;;19.66;42.35;100574.91;5061164;28;20233;-68
2023/05/10 09:40:12;;;;;;;11.03;2.13;;;;;;;19.71;40.78;100564.53;5061383;28;20337;-68
2023/05/10 09:42:39;;;;;;;4.20;1.90;;;;;;;19.75;42.32;100559.16;5060363;28;20222;-68
2023/05/10 09:45:07;;;;;;;11.23;2.57;;;;;;;19.82;40.85;100561.84;5056491;28;20196;-68
2023/05/10 09:47:34;;;;;;;4.47;2.00;;;;;;;19.88;42.61;100562.97;5061846;28;20190;-68
2023/05/10 09:50:04;;;;;;;7.67;2.10;;;;;;;19.95;42.66;100562.94;5055418;28;20583;-68
2023/05/10 09:52:32;;;;;;;4.13;2.03;;;;;;;20.03;40.97;100573.22;5058629;28;20218;-68
2023/05/10 09:54:58;;;;;;;3.53;1.77;;;;;;;20.12;41.47;100562.16;5059935;28;20198;-68
2023/05/10 09:57:25;;;;;;;2.73;1.93;;;;;;;20.17;41.24;100565.19;5060427;28;20203;-68
2023/05/10 09:59:54;;;;;;;3.87;2.00;;;;;;;20.23;40.76;100554.81;5058328;28;20206;-68
2023/05/10 10:02:21;;;;;;;10.43;2.40;;;;;;;20.30;40.44;100560.91;5052522;28;20231;-68
2023/05/10 10:04:50;;;;;;;3.97;1.90;;;;;;;20.38;39.74;100569.69;5061751;28;20555;-68
2023/05/10 10:07:23;;;;;;;5.27;2.00;;;;;;;20.43;40.90;100559.31;5060094;28;20904;-68
2023/05/10 10:09:50;;;;;;;7.37;2.23;;;;;;;20.48;40.86;100555.47;5061273;28;20291;-68
2023/05/10 10:12:17;;;;;;;3.23;2.00;;;;;;;20.53;40.48;100555.03;5041643;28;20313;-68
2023/05/10 10:14:44;;;;;;;4.40;1.83;;;;;;;20.59;39.81;100548.13;5056904;28;20712;-68
2023/05/10 10:17:10;;;;;;;2.53;2.03;;;;;;;20.63;39.67;100554.97;5038395;28;20211;-68
2023/05/10 10:19:38;;;;;;;7.00;2.20;;;;;;;20.65;40.69;100546.53;5058803;28;20199;-68
2023/05/10 10:22:05;;;;;;;3.43;2.00;;;;;;;20.72;40.18;100552.63;5055468;28;20597;-68
2023/05/10 10:24:32;;;;;;;8.00;2.30;;;;;;;20.77;40.42;100551.44;5057977;28;20260;-68
2023/05/10 10:27:05;;;;;;;5.50;2.00;;;;;;;20.81;38.20;100552.91;5061381;28;20202;-69
2023/05/10 10:29:40;;;;;;;5.13;2.00;;;;;;;20.83;38.59;100549.84;5057669;28;20206;-68
2023/05/10 10:32:18;;;;;;;2.63;2.00;;;;;;;20.87;39.00;100542.53;5043241;28;20302;-69
2023/05/10 10:34:46;;;;;;;3.90;2.23;;;;;;;20.92;39.04;100552.88;5057803;28;20264;-68
2023/05/10 10:37:12;;;;;;;2.77;1.80;;;;;;;20.96;39.49;100546.31;5057499;28;20204;-69
2023/05/10 10:39:39;;;;;;;4.43;2.07;;;;;;;21.01;40.17;100543.22;5056999;28;20210;-68
2023/05/10 10:42:05;;;;;;;4.13;2.00;;;;;;;21.06;38.28;100542.03;5056428;28;20278;-68
2023/05/10 10:44:37;;;;;;;5.03;1.70;;;;;;;21.14;39.17;100551.56;5056799;28;20577;-68
2023/05/10 10:47:24;;;;;;;5.80;2.50;;;;;;;21.20;38.98;100541.91;5060076;28;20266;-68
2023/05/10 10:49:54;;;;;;;4.00;2.10;;;;;;;21.25;39.00;100547.63;5054564;28;20218;-68
2023/05/10 10:52:28;;;;;;;4.80;1.93;;;;;;;21.31;39.13;100542.59;5056377;28;20231;-68
2023/05/10 10:54:59;;;;;;;5.03;1.83;;;;;;;21.35;38.71;100538.72;5057249;28;20209;-68
2023/05/10 10:57:27;;;;;;;5.10;1.97;;;;;;;21.42;39.26;100540.56;5059284;28;20332;-68
2023/05/10 11:00:30;;;;;;;3.67;2.10;;;;;;;21.49;38.72;100546.63;5055956;28;20209;-68
2023/05/10 11:02:58;;;;;;;3.13;1.67;;;;;;;21.53;38.00;100543.91;5052080;28;20198;-68
2023/05/10 11:05:41;;;;;;;4.70;2.03;;;;;;;21.56;38.00;100549.25;5051517;28;20653;-68
2023/05/10 11:08:10;;;;;;;5.83;2.00;;;;;;;21.60;37.71;100544.59;5050955;28;20218;-68
2023/05/10 11:10:37;;;;;;;3.40;1.90;;;;;;;21.64;38.36;100541.88;5056366;28;20827;-68
2023/05/10 11:13:05;;;;;;;4.70;1.90;;;;;;;21.68;38.26;100546.06;5053886;28;20202;-68
2023/05/10 11:15:36;;;;;;;5.17;2.23;;;;;;;21.72;37.93;100535.28;5058119;28;20198;-68
2023/05/10 11:18:18;;;;;;;5.93;2.37;;;;;;;21.78;36.71;100534.44;5055983;28;20222;-68
2023/05/10 11:20:46;;;;;;;3.10;1.93;;;;;;;21.80;37.49;100534.81;5057763;28;20292;-68
2023/05/10 11:23:15;;;;;;;8.73;2.00;;;;;;;21.83;38.02;100527.88;5056081;28;20206;-68
2023/05/10 11:25:44;;;;;;;7.77;2.10;;;;;;;21.90;35.52;100541.22;5060035;28;20203;-68
2023/05/10 11:28:11;;;;;;;5.57;2.03;;;;;;;21.92;37.42;100528.13;5042312;28;20597;-68
2023/05/10 11:30:40;;;;;;;5.63;1.90;;;;;;;21.98;37.92;100531.91;5059780;28;20309;-68